sensor_id;sensor_type;location;lat;lon;timestamp;P1;durP1;ratioP1;P2;durP2;ratioP2
9485;SDS011;4781;48.776;9.200;2023-05-07T06:13:08;7.70;;;3.92;;
9485;SDS011;4781;48.776;9.200;2023-05-07T06:15:37;8.15;;;4.55;;
9485;SDS011;4781;48.776;9.200;2023-05-07T06:18:06;7.85;;;4.12;;
9485;SDS011;4781;48.776;9.200;2023-05-07T06:20:34;5.95;;;3.92;;
9485;SDS011;4781;48.776;9.200;2023-05-07T06:23:02;7.08;;;3.95;;
9485;SDS011;4781;48.776;9.200;2023-05-07T06:25:31;7.25;;;4.10;;
9485;SDS011;4781;48.776;9.200;2023-05-07T06:27:59;6.05;;;3.70;;
9485;SDS011;4781;48.776;9.200;2023-05-07T06:30:28;6.42;;;3.80;;
9485;SDS011;4781;48.776;9.200;2023-05-07T06:32:56;6.28;;;3.87;;
9485;SDS011;4781;48.776;9.200;2023-05-07T06:35:24;7.15;;;4.20;;
9485;SDS011;4781;48.776;9.200;2023-05-07T06:37:53;7.10;;;4.10;;
9485;SDS011;4781;48.776;9.200;2023-05-07T06:40:21;7.65;;;4.10;;
9485;SDS011;4781;48.776;9.200;2023-05-07T06:42:50;6.80;;;4.00;;
9485;SDS011;4781;48.776;9.200;2023-05-07T06:45:19;7.00;;;3.60;;
9485;SDS011;4781;48.776;9.200;2023-05-07T06:47:51;6.78;;;3.85;;
9485;SDS011;4781;48.776;9.200;2023-05-07T06:50:18;6.35;;;3.90;;
9485;SDS011;4781;48.776;9.200;2023-05-07T06:52:46;6.35;;;3.98;;
9485;SDS011;4781;48.776;9.200;2023-05-07T06:55:15;6.55;;;4.05;;
9485;SDS011;4781;48.776;9.200;2023-05-07T06:57:45;10.00;;;4.20;;
9485;SDS011;4781;48.776;9.200;2023-05-07T07:00:15;5.20;;;3.47;;
9485;SDS011;4781;48.776;9.200;2023-05-07T07:02:43;5.53;;;3.37;;
9485;SDS011;4781;48.776;9.200;2023-05-07T07:05:12;6.50;;;4.08;;
9485;SDS011;4781;48.776;9.200;2023-05-07T07:07:40;6.58;;;3.55;;
9485;SDS011;4781;48.776;9.200;2023-05-07T07:10:09;7.65;;;3.52;;
9485;SDS011;4781;48.776;9.200;2023-05-07T07:12:37;8.28;;;3.98;;
9485;SDS011;4781;48.776;9.200;2023-05-07T07:15:06;5.08;;;3.22;;
9485;SDS011;4781;48.776;9.200;2023-05-07T07:17:35;8.40;;;3.30;;
9485;SDS011;4781;48.776;9.200;2023-05-07T07:20:03;5.72;;;3.42;;
9485;SDS011;4781;48.776;9.200;2023-05-07T07:22:33;5.67;;;3.90;;
9485;SDS011;4781;48.776;9.200;2023-05-07T07:25:01;5.10;;;3.15;;
9485;SDS011;4781;48.776;9.200;2023-05-07T07:27:30;4.50;;;2.87;;
9485;SDS011;4781;48.776;9.200;2023-05-07T07:29:58;6.17;;;3.27;;
9485;SDS011;4781;48.776;9.200;2023-05-07T07:32:31;6.35;;;2.67;;
9485;SDS011;4781;48.776;9.200;2023-05-07T07:34:59;7.08;;;2.52;;
9485;SDS011;4781;48.776;9.200;2023-05-07T07:37:28;4.92;;;2.60;;
9485;SDS011;4781;48.776;9.200;2023-05-07T07:39:56;5.28;;;2.30;;
9485;SDS011;4781;48.776;9.200;2023-05-07T07:42:25;4.40;;;2.60;;
9485;SDS011;4781;48.776;9.200;2023-05-07T07:44:54;5.05;;;2.60;;
9485;SDS011;4781;48.776;9.200;2023-05-07T07:47:23;4.35;;;2.58;;
9485;SDS011;4781;48.776;9.200;2023-05-07T07:49:51;6.15;;;2.58;;
9485;SDS011;4781;48.776;9.200;2023-05-07T07:52:20;3.45;;;2.20;;
9485;SDS011;4781;48.776;9.200;2023-05-07T07:54:48;5.12;;;2.22;;
9485;SDS011;4781;48.776;9.200;2023-05-07T07:57:16;4.47;;;2.62;;
9485;SDS011;4781;48.776;9.200;2023-05-07T07:59:45;5.58;;;1.87;;
9485;SDS011;4781;48.776;9.200;2023-05-07T08:02:13;4.85;;;2.12;;
9485;SDS011;4781;48.776;9.200;2023-05-07T08:04:43;2.75;;;1.55;;
9485;SDS011;4781;48.776;9.200;2023-05-07T08:07:12;5.92;;;2.30;;
9485;SDS011;4781;48.776;9.200;2023-05-07T08:09:43;4.72;;;2.20;;
9485;SDS011;4781;48.776;9.200;2023-05-07T08:12:11;4.65;;;1.90;;
9485;SDS011;4781;48.776;9.200;2023-05-07T08:14:40;4.75;;;1.92;;
9485;SDS011;4781;48.776;9.200;2023-05-07T08:17:08;3.80;;;2.30;;
9485;SDS011;4781;48.776;9.200;2023-05-07T08:19:37;3.95;;;1.75;;
9485;SDS011;4781;48.776;9.200;2023-05-07T08:22:05;3.45;;;1.92;;
9485;SDS011;4781;48.776;9.200;2023-05-07T08:24:33;4.60;;;2.15;;
9485;SDS011;4781;48.776;9.200;2023-05-07T08:27:02;4.65;;;2.20;;
9485;SDS011;4781;48.776;9.200;2023-05-07T08:29:35;5.00;;;2.00;;
9485;SDS011;4781;48.776;9.200;2023-05-07T08:32:03;3.37;;;2.12;;
9485;SDS011;4781;48.776;9.200;2023-05-07T08:34:31;7.55;;;2.70;;
9485;SDS011;4781;48.776;9.200;2023-05-07T08:37:01;3.08;;;1.82;;
9485;SDS011;4781;48.776;9.200;2023-05-07T08:39:29;3.52;;;2.20;;
9485;SDS011;4781;48.776;9.200;2023-05-07T08:41:59;4.00;;;1.92;;
9485;SDS011;4781;48.776;9.200;2023-05-07T08:44:29;7.62;;;2.08;;
9485;SDS011;4781;48.776;9.200;2023-05-07T08:47:03;3.33;;;1.72;;
9485;SDS011;4781;48.776;9.200;2023-05-07T08:49:34;4.95;;;1.90;;
9485;SDS011;4781;48.776;9.200;2023-05-07T08:52:03;5.20;;;1.80;;
9485;SDS011;4781;48.776;9.200;2023-05-07T08:54:32;6.20;;;2.70;;
9485;SDS011;4781;48.776;9.200;2023-05-07T08:57:04;3.37;;;2.08;;
9485;SDS011;4781;48.776;9.200;2023-05-07T08:59:32;5.90;;;2.12;;
9485;SDS011;4781;48.776;9.200;2023-05-07T09:02:02;4.40;;;1.70;;
9485;SDS011;4781;48.776;9.200;2023-05-07T09:04:32;5.62;;;1.77;;
9485;SDS011;4781;48.776;9.200;2023-05-07T09:07:04;3.12;;;1.75;;
9485;SDS011;4781;48.776;9.200;2023-05-07T09:09:32;4.03;;;1.82;;
9485;SDS011;4781;48.776;9.200;2023-05-07T09:12:01;3.02;;;1.90;;
9485;SDS011;4781;48.776;9.200;2023-05-07T09:14:29;3.35;;;1.60;;
9485;SDS011;4781;48.776;9.200;2023-05-07T09:16:58;2.83;;;1.75;;
9485;SDS011;4781;48.776;9.200;2023-05-07T09:19:27;2.85;;;1.40;;
9485;SDS011;4781;48.776;9.200;2023-05-07T09:21:59;5.33;;;2.00;;
9485;SDS011;4781;48.776;9.200;2023-05-07T09:24:34;5.15;;;1.52;;
9485;SDS011;4781;48.776;9.200;2023-05-07T09:27:04;3.87;;;1.45;;
9485;SDS011;4781;48.776;9.200;2023-05-07T09:29:34;3.62;;;1.60;;
9485;SDS011;4781;48.776;9.200;2023-05-07T09:32:06;3.72;;;1.87;;
9485;SDS011;4781;48.776;9.200;2023-05-07T09:34:40;3.08;;;1.60;;
9485;SDS011;4781;48.776;9.200;2023-05-07T09:37:05;3.95;;;2.12;;
9485;SDS011;4781;48.776;9.200;2023-05-07T09:39:43;3.37;;;1.57;;
9485;SDS011;4781;48.776;9.200;2023-05-07T09:42:13;2.62;;;1.35;;
9485;SDS011;4781;48.776;9.200;2023-05-07T09:44:44;3.17;;;1.60;;
9485;SDS011;4781;48.776;9.200;2023-05-07T09:47:16;3.98;;;1.62;;
9485;SDS011;4781;48.776;9.200;2023-05-07T09:49:47;3.22;;;1.47;;
9485;SDS011;4781;48.776;9.200;2023-05-07T09:52:23;2.98;;;1.40;;
9485;SDS011;4781;48.776;9.200;2023-05-07T09:54:57;3.92;;;1.75;;
9485;SDS011;4781;48.776;9.200;2023-05-07T09:57:25;3.00;;;1.60;;
9485;SDS011;4781;48.776;9.200;2023-05-07T09:59:58;3.47;;;1.42;;
9485;SDS011;4781;48.776;9.200;2023-05-07T10:02:25;3.77;;;1.42;;
9485;SDS011;4781;48.776;9.200;2023-05-07T10:04:57;2.87;;;1.32;;
9485;SDS011;4781;48.776;9.200;2023-05-07T10:07:27;2.50;;;1.30;;
9485;SDS011;4781;48.776;9.200;2023-05-07T10:09:57;3.17;;;1.65;;
9485;SDS011;4781;48.776;9.200;2023-05-07T10:12:30;3.65;;;1.60;;
9485;SDS011;4781;48.776;9.200;2023-05-07T10:15:03;4.65;;;1.70;;
9485;SDS011;4781;48.776;9.200;2023-05-07T10:17:36;3.45;;;1.77;;
9485;SDS011;4781;48.776;9.200;2023-05-07T10:20:06;3.22;;;1.70;;
9485;SDS011;4781;48.776;9.200;2023-05-07T10:22:40;3.37;;;1.80;;
9485;SDS011;4781;48.776;9.200;2023-05-07T10:25:16;3.08;;;1.47;;
9485;SDS011;4781;48.776;9.200;2023-05-07T10:28:04;5.22;;;1.30;;
9485;SDS011;4781;48.776;9.200;2023-05-07T10:30:52;3.00;;;1.52;;
9485;SDS011;4781;48.776;9.200;2023-05-07T10:33:28;2.72;;;1.30;;
9485;SDS011;4781;48.776;9.200;2023-05-07T10:35:58;3.27;;;1.55;;
9485;SDS011;4781;48.776;9.200;2023-05-07T10:38:30;5.97;;;1.70;;
9485;SDS011;4781;48.776;9.200;2023-05-07T10:41:01;3.08;;;1.57;;
9485;SDS011;4781;48.776;9.200;2023-05-07T10:43:40;2.70;;;1.55;;
9485;SDS011;4781;48.776;9.200;2023-05-07T10:51:34;2.62;;;1.40;;
9485;SDS011;4781;48.776;9.200;2023-05-07T10:54:40;3.02;;;1.45;;
9485;SDS011;4781;48.776;9.200;2023-05-07T11:05:34;3.30;;;1.40;;
9485;SDS011;4781;48.776;9.200;2023-05-07T11:08:03;3.08;;;1.30;;
9485;SDS011;4781;48.776;9.200;2023-05-07T11:16:20;4.15;;;1.45;;
9485;SDS011;4781;48.776;9.200;2023-05-07T11:18:54;3.55;;;1.30;;
9485;SDS011;4781;48.776;9.200;2023-05-07T11:21:43;2.70;;;1.17;;
9485;SDS011;4781;48.776;9.200;2023-05-07T11:24:01;1.82;;;1.12;;
9485;SDS011;4781;48.776;9.200;2023-05-07T11:26:41;2.47;;;1.40;;
9485;SDS011;4781;48.776;9.200;2023-05-07T11:29:18;2.50;;;1.17;;
9485;SDS011;4781;48.776;9.200;2023-05-07T11:31:51;2.25;;;1.20;;
9485;SDS011;4781;48.776;9.200;2023-05-07T11:34:24;3.05;;;1.35;;
9485;SDS011;4781;48.776;9.200;2023-05-07T11:36:53;3.65;;;1.30;;
9485;SDS011;4781;48.776;9.200;2023-05-07T11:39:23;2.67;;;1.30;;
9485;SDS011;4781;48.776;9.200;2023-05-07T11:41:54;6.65;;;1.40;;
9485;SDS011;4781;48.776;9.200;2023-05-07T11:44:23;2.30;;;1.10;;
9485;SDS011;4781;48.776;9.200;2023-05-07T11:46:51;4.00;;;1.40;;
9485;SDS011;4781;48.776;9.200;2023-05-07T11:49:19;3.02;;;1.17;;
9485;SDS011;4781;48.776;9.200;2023-05-07T11:51:48;2.58;;;1.35;;
9485;SDS011;4781;48.776;9.200;2023-05-07T11:54:16;2.83;;;1.45;;
9485;SDS011;4781;48.776;9.200;2023-05-07T11:56:44;2.90;;;1.60;;
9485;SDS011;4781;48.776;9.200;2023-05-07T11:59:16;7.30;;;1.98;;
9485;SDS011;4781;48.776;9.200;2023-05-07T12:01:46;2.72;;;1.40;;
9485;SDS011;4781;48.776;9.200;2023-05-07T12:04:18;2.90;;;1.40;;
9485;SDS011;4781;48.776;9.200;2023-05-07T12:06:46;3.37;;;1.70;;
9485;SDS011;4781;48.776;9.200;2023-05-07T12:09:16;2.83;;;1.37;;
9485;SDS011;4781;48.776;9.200;2023-05-07T12:11:45;2.17;;;1.15;;
9485;SDS011;4781;48.776;9.200;2023-05-07T12:14:14;5.35;;;1.47;;
9485;SDS011;4781;48.776;9.200;2023-05-07T12:16:43;4.55;;;1.55;;
9485;SDS011;4781;48.776;9.200;2023-05-07T12:19:12;2.90;;;1.30;;
9485;SDS011;4781;48.776;9.200;2023-05-07T12:21:40;2.35;;;1.55;;
